sensor_id;sensor_type;location;lat;lon;timestamp;temperature;humidity
18974;DHT22;9621;48.690;9.466;2022-09-27T00:02:22;8.40;99.90
18974;DHT22;9621;48.690;9.466;2022-09-27T00:05:16;8.80;99.90
18974;DHT22;9621;48.690;9.466;2022-09-27T00:10:45;8.70;99.90
18974;DHT22;9621;48.690;9.466;2022-09-27T00:13:29;8.50;99.90
18974;DHT22;9621;48.690;9.466;2022-09-27T00:16:02;8.30;99.90
18974;DHT22;9621;48.690;9.466;2022-09-27T00:18:33;7.90;99.90
18974;DHT22;9621;48.690;9.466;2022-09-27T00:21:11;7.90;99.90
18974;DHT22;9621;48.690;9.466;2022-09-27T00:24:14;8.50;99.90
18974;DHT22;9621;48.690;9.466;2022-09-27T00:26:48;8.40;99.90
18974;DHT22;9621;48.690;9.466;2022-09-27T00:32:06;8.60;99.90
18974;DHT22;9621;48.690;9.466;2022-09-27T00:34:34;8.80;99.90
18974;DHT22;9621;48.690;9.466;2022-09-27T00:37:03;8.20;99.90
18974;DHT22;9621;48.690;9.466;2022-09-27T00:39:30;8.60;99.90
18974;DHT22;9621;48.690;9.466;2022-09-27T00:41:59;8.70;99.90
18974;DHT22;9621;48.690;9.466;2022-09-27T00:45:01;8.80;99.90
18974;DHT22;9621;48.690;9.466;2022-09-27T00:47:35;8.80;99.90
18974;DHT22;9621;48.690;9.466;2022-09-27T00:50:32;9.00;99.90
18974;DHT22;9621;48.690;9.466;2022-09-27T00:53:09;9.00;99.90
18974;DHT22;9621;48.690;9.466;2022-09-27T00:55:43;8.90;99.90
18974;DHT22;9621;48.690;9.466;2022-09-27T00:58:29;8.80;99.90
18974;DHT22;9621;48.690;9.466;2022-09-27T01:03:53;9.10;99.90
18974;DHT22;9621;48.690;9.466;2022-09-27T01:06:27;8.00;99.90
18974;DHT22;9621;48.690;9.466;2022-09-27T01:09:01;8.90;99.90
18974;DHT22;9621;48.690;9.466;2022-09-27T01:11:48;9.10;99.90
18974;DHT22;9621;48.690;9.466;2022-09-27T01:31:59;7.30;99.90
18974;DHT22;9621;48.690;9.466;2022-09-27T01:34:58;8.90;99.90
18974;DHT22;9621;48.690;9.466;2022-09-27T01:37:48;8.70;99.90
18974;DHT22;9621;48.690;9.466;2022-09-27T01:40:41;8.90;99.90
18974;DHT22;9621;48.690;9.466;2022-09-27T01:43:51;8.80;99.90
18974;DHT22;9621;48.690;9.466;2022-09-27T01:46:39;8.80;99.90
18974;DHT22;9621;48.690;9.466;2022-09-27T01:52:55;8.80;99.90
18974;DHT22;9621;48.690;9.466;2022-09-27T01:55:54;8.70;99.90
18974;DHT22;9621;48.690;9.466;2022-09-27T02:01:46;9.10;99.90
18974;DHT22;9621;48.690;9.466;2022-09-27T02:04:36;8.70;99.90
18974;DHT22;9621;48.690;9.466;2022-09-27T02:07:36;8.70;99.90
18974;DHT22;9621;48.690;9.466;2022-09-27T02:10:55;9.30;99.90
18974;DHT22;9621;48.690;9.466;2022-09-27T02:13:44;9.10;99.90
18974;DHT22;9621;48.690;9.466;2022-09-27T02:16:37;8.80;99.90
18974;DHT22;9621;48.690;9.466;2022-09-27T02:19:12;9.10;99.90
18974;DHT22;9621;48.690;9.466;2022-09-27T02:21:42;8.90;99.90
18974;DHT22;9621;48.690;9.466;2022-09-27T02:24:20;9.00;99.90
18974;DHT22;9621;48.690;9.466;2022-09-27T02:26:56;9.10;99.90
18974;DHT22;9621;48.690;9.466;2022-09-27T02:29:34;9.20;99.90
18974;DHT22;9621;48.690;9.466;2022-09-27T02:32:03;9.00;99.90
18974;DHT22;9621;48.690;9.466;2022-09-27T02:34:32;9.10;99.90
18974;DHT22;9621;48.690;9.466;2022-09-27T02:37:03;9.20;99.90
18974;DHT22;9621;48.690;9.466;2022-09-27T02:39:50;9.10;99.90
18974;DHT22;9621;48.690;9.466;2022-09-27T02:52:54;8.90;99.90
18974;DHT22;9621;48.690;9.466;2022-09-27T03:27:07;8.50;99.90
18974;DHT22;9621;48.690;9.466;2022-09-27T04:00:49;8.30;99.90
18974;DHT22;9621;48.690;9.466;2022-09-27T04:03:16;8.30;99.90
18974;DHT22;9621;48.690;9.466;2022-09-27T04:05:45;8.30;99.90
18974;DHT22;9621;48.690;9.466;2022-09-27T04:08:17;8.40;99.90
18974;DHT22;9621;48.690;9.466;2022-09-27T04:10:58;7.80;99.90
18974;DHT22;9621;48.690;9.466;2022-09-27T04:13:33;8.40;99.90
18974;DHT22;9621;48.690;9.466;2022-09-27T04:16:16;8.00;99.90
18974;DHT22;9621;48.690;9.466;2022-09-27T04:18:50;8.40;99.90
18974;DHT22;9621;48.690;9.466;2022-09-27T04:26:37;8.40;99.90
18974;DHT22;9621;48.690;9.466;2022-09-27T04:29:04;8.40;99.90
18974;DHT22;9621;48.690;9.466;2022-09-27T04:31:32;9.50;99.90
18974;DHT22;9621;48.690;9.466;2022-09-27T04:37:24;8.50;99.90
18974;DHT22;9621;48.690;9.466;2022-09-27T04:58:22;8.50;99.90
18974;DHT22;9621;48.690;9.466;2022-09-27T05:00:50;8.50;99.90
18974;DHT22;9621;48.690;9.466;2022-09-27T05:03:20;8.50;99.90
18974;DHT22;9621;48.690;9.466;2022-09-27T05:05:47;8.50;99.90
18974;DHT22;9621;48.690;9.466;2022-09-27T05:08:14;8.50;99.90
18974;DHT22;9621;48.690;9.466;2022-09-27T05:10:41;8.40;99.90
18974;DHT22;9621;48.690;9.466;2022-09-27T05:13:08;8.40;99.90
18974;DHT22;9621;48.690;9.466;2022-09-27T05:15:37;8.40;99.90
18974;DHT22;9621;48.690;9.466;2022-09-27T05:18:04;8.40;99.90
18974;DHT22;9621;48.690;9.466;2022-09-27T05:20:32;8.40;99.90
18974;DHT22;9621;48.690;9.466;2022-09-27T05:23:00;8.40;99.90
18974;DHT22;9621;48.690;9.466;2022-09-27T05:25:29;8.30;99.90
18974;DHT22;9621;48.690;9.466;2022-09-27T05:27:56;8.30;99.90
18974;DHT22;9621;48.690;9.466;2022-09-27T05:30:24;8.30;99.90
18974;DHT22;9621;48.690;9.466;2022-09-27T05:32:53;8.30;99.90
18974;DHT22;9621;48.690;9.466;2022-09-27T05:35:21;8.30;99.90
18974;DHT22;9621;48.690;9.466;2022-09-27T05:37:52;8.30;99.90
18974;DHT22;9621;48.690;9.466;2022-09-27T05:40:20;8.30;99.90
18974;DHT22;9621;48.690;9.466;2022-09-27T05:42:49;8.30;99.90
18974;DHT22;9621;48.690;9.466;2022-09-27T05:45:16;8.30;99.90
18974;DHT22;9621;48.690;9.466;2022-09-27T05:47:55;8.30;99.90
18974;DHT22;9621;48.690;9.466;2022-09-27T05:50:23;8.20;99.90
18974;DHT22;9621;48.690;9.466;2022-09-27T05:52:51;8.20;99.90
18974;DHT22;9621;48.690;9.466;2022-09-27T05:55:18;8.20;99.90
18974;DHT22;9621;48.690;9.466;2022-09-27T05:57:56;8.20;99.90
18974;DHT22;9621;48.690;9.466;2022-09-27T06:00:24;8.20;99.90
18974;DHT22;9621;48.690;9.466;2022-09-27T06:02:58;8.10;99.90
18974;DHT22;9621;48.690;9.466;2022-09-27T06:05:27;8.10;99.90
18974;DHT22;9621;48.690;9.466;2022-09-27T06:07:57;8.10;99.90
18974;DHT22;9621;48.690;9.466;2022-09-27T06:10:26;8.10;99.90
18974;DHT22;9621;48.690;9.466;2022-09-27T06:12:53;7.50;99.90
18974;DHT22;9621;48.690;9.466;2022-09-27T06:15:24;8.10;99.90
18974;DHT22;9621;48.690;9.466;2022-09-27T06:17:51;8.00;99.90
18974;DHT22;9621;48.690;9.466;2022-09-27T06:20:19;8.00;99.90
18974;DHT22;9621;48.690;9.466;2022-09-27T06:22:46;8.00;99.90
18974;DHT22;9621;48.690;9.466;2022-09-27T06:25:13;8.00;99.90
18974;DHT22;9621;48.690;9.466;2022-09-27T06:27:42;8.00;99.90
18974;DHT22;9621;48.690;9.466;2022-09-27T06:30:10;8.00;99.90
18974;DHT22;9621;48.690;9.466;2022-09-27T06:32:40;8.00;99.90
18974;DHT22;9621;48.690;9.466;2022-09-27T06:35:07;8.00;99.90
18974;DHT22;9621;48.690;9.466;2022-09-27T06:37:36;8.30;99.90
18974;DHT22;9621;48.690;9.466;2022-09-27T06:40:04;8.00;99.90
18974;DHT22;9621;48.690;9.466;2022-09-27T06:42:33;8.10;99.90
18974;DHT22;9621;48.690;9.466;2022-09-27T06:45:00;8.00;99.90
18974;DHT22;9621;48.690;9.466;2022-09-27T06:47:34;8.10;99.90
18974;DHT22;9621;48.690;9.466;2022-09-27T06:50:01;8.00;99.90
18974;DHT22;9621;48.690;9.466;2022-09-27T06:52:30;8.10;99.90
18974;DHT22;9621;48.690;9.466;2022-09-27T06:54:58;8.10;99.90
18974;DHT22;9621;48.690;9.466;2022-09-27T06:57:25;8.10;99.90
18974;DHT22;9621;48.690;9.466;2022-09-27T07:00:21;8.20;99.90
18974;DHT22;9621;48.690;9.466;2022-09-27T07:02:52;8.20;99.90
18974;DHT22;9621;48.690;9.466;2022-09-27T07:05:26;8.20;99.90
18974;DHT22;9621;48.690;9.466;2022-09-27T07:07:53;8.20;99.90
18974;DHT22;9621;48.690;9.466;2022-09-27T07:10:24;8.20;99.90
18974;DHT22;9621;48.690;9.466;2022-09-27T07:12:51;8.20;99.90
18974;DHT22;9621;48.690;9.466;2022-09-27T07:15:19;8.20;99.90
18974;DHT22;9621;48.690;9.466;2022-09-27T07:17:46;8.20;99.90
18974;DHT22;9621;48.690;9.466;2022-09-27T07:20:14;8.30;99.90
18974;DHT22;9621;48.690;9.466;2022-09-27T07:22:41;8.30;99.90
18974;DHT22;9621;48.690;9.466;2022-09-27T07:25:09;8.40;99.90
18974;DHT22;9621;48.690;9.466;2022-09-27T07:27:38;8.50;99.90
18974;DHT22;9621;48.690;9.466;2022-09-27T07:30:07;8.60;99.90
18974;DHT22;9621;48.690;9.466;2022-09-27T07:32:35;8.70;99.90
18974;DHT22;9621;48.690;9.466;2022-09-27T07:35:03;8.80;99.90
18974;DHT22;9621;48.690;9.466;2022-09-27T07:37:31;8.90;99.90
18974;DHT22;9621;48.690;9.466;2022-09-27T07:39:58;8.90;99.90
18974;DHT22;9621;48.690;9.466;2022-09-27T07:42:26;9.00;99.90
18974;DHT22;9621;48.690;9.466;2022-09-27T07:44:55;9.10;99.90
18974;DHT22;9621;48.690;9.466;2022-09-27T07:47:22;9.20;99.90
18974;DHT22;9621;48.690;9.466;2022-09-27T07:49:52;9.20;99.90
18974;DHT22;9621;48.690;9.466;2022-09-27T07:52:21;9.20;99.90
18974;DHT22;9621;48.690;9.466;2022-09-27T07:54:48;9.10;99.90
18974;DHT22;9621;48.690;9.466;2022-09-27T07:57:15;9.30;99.90
18974;DHT22;9621;48.690;9.466;2022-09-27T07:59:42;9.20;99.90
18974;DHT22;9621;48.690;9.466;2022-09-27T08:02:13;9.10;99.90
18974;DHT22;9621;48.690;9.466;2022-09-27T08:04:40;9.10;99.90
18974;DHT22;9621;48.690;9.466;2022-09-27T08:07:08;9.10;99.90
18974;DHT22;9621;48.690;9.466;2022-09-27T08:09:35;9.10;99.90
18974;DHT22;9621;48.690;9.466;2022-09-27T08:12:03;9.10;99.90
18974;DHT22;9621;48.690;9.466;2022-09-27T08:14:30;9.20;99.90
18974;DHT22;9621;48.690;9.466;2022-09-27T08:16:57;9.40;99.90
18974;DHT22;9621;48.690;9.466;2022-09-27T08:19:26;9.70;99.90
18974;DHT22;9621;48.690;9.466;2022-09-27T08:21:53;9.90;99.90
18974;DHT22;9621;48.690;9.466;2022-09-27T08:24:20;10.30;99.90
18974;DHT22;9621;48.690;9.466;2022-09-27T08:26:48;10.60;99.90
18974;DHT22;9621;48.690;9.466;2022-09-27T08:29:15;10.80;99.90
18974;DHT22;9621;48.690;9.466;2022-09-27T08:31:41;10.90;99.90
18974;DHT22;9621;48.690;9.466;2022-09-27T08:34:08;11.00;99.90
18974;DHT22;9621;48.690;9.466;2022-09-27T08:36:37;11.00;99.90
18974;DHT22;9621;48.690;9.466;2022-09-27T08:39:04;10.90;99.90
18974;DHT22;9621;48.690;9.466;2022-09-27T08:41:36;10.80;99.90
18974;DHT22;9621;48.690;9.466;2022-09-27T08:44:10;10.70;99.90
18974;DHT22;9621;48.690;9.466;2022-09-27T08:46:48;10.60;99.90
18974;DHT22;9621;48.690;9.466;2022-09-27T08:49:22;10.50;99.90
18974;DHT22;9621;48.690;9.466;2022-09-27T08:51:52;10.50;99.90
18974;DHT22;9621;48.690;9.466;2022-09-27T08:54:21;10.60;99.90
18974;DHT22;9621;48.690;9.466;2022-09-27T08:56:51;10.60;99.90
18974;DHT22;9621;48.690;9.466;2022-09-27T08:59:22;10.70;99.90
18974;DHT22;9621;48.690;9.466;2022-09-27T09:01:53;10.70;99.90
18974;DHT22;9621;48.690;9.466;2022-09-27T09:04:25;10.60;99.90
18974;DHT22;9621;48.690;9.466;2022-09-27T09:07:05;10.60;99.90
18974;DHT22;9621;48.690;9.466;2022-09-27T09:09:39;10.50;99.90
18974;DHT22;9621;48.690;9.466;2022-09-27T09:12:19;10.40;99.90
18974;DHT22;9621;48.690;9.466;2022-09-27T09:15:19;10.30;99.90
18974;DHT22;9621;48.690;9.466;2022-09-27T09:20:54;9.90;99.90
18974;DHT22;9621;48.690;9.466;2022-09-27T09:23:55;9.70;99.90
18974;DHT22;9621;48.690;9.466;2022-09-27T09:26:33;9.60;99.90
18974;DHT22;9621;48.690;9.466;2022-09-27T09:29:09;9.50;99.90
18974;DHT22;9621;48.690;9.466;2022-09-27T09:31:44;9.40;99.90
18974;DHT22;9621;48.690;9.466;2022-09-27T09:34:17;9.50;99.90
18974;DHT22;9621;48.690;9.466;2022-09-27T09:36:49;9.70;99.90
18974;DHT22;9621;48.690;9.466;2022-09-27T09:39:23;10.00;99.90
18974;DHT22;9621;48.690;9.466;2022-09-27T09:42:02;10.20;99.90
18974;DHT22;9621;48.690;9.466;2022-09-27T09:44:37;10.50;99.90
18974;DHT22;9621;48.690;9.466;2022-09-27T09:47:13;10.80;99.90
18974;DHT22;9621;48.690;9.466;2022-09-27T09:49:43;11.00;99.90
18974;DHT22;9621;48.690;9.466;2022-09-27T09:52:14;11.20;99.90
18974;DHT22;9621;48.690;9.466;2022-09-27T09:54:47;11.50;99.90
18974;DHT22;9621;48.690;9.466;2022-09-27T09:57:21;11.90;99.90
18974;DHT22;9621;48.690;9.466;2022-09-27T09:59:51;12.20;99.90
18974;DHT22;9621;48.690;9.466;2022-09-27T10:02:26;12.60;99.90
18974;DHT22;9621;48.690;9.466;2022-09-27T10:04:56;13.00;99.90
18974;DHT22;9621;48.690;9.466;2022-09-27T10:07:23;13.30;99.90
18974;DHT22;9621;48.690;9.466;2022-09-27T10:09:56;13.40;99.90
18974;DHT22;9621;48.690;9.466;2022-09-27T10:12:25;13.50;99.90
18974;DHT22;9621;48.690;9.466;2022-09-27T10:14:53;13.50;99.90
18974;DHT22;9621;48.690;9.466;2022-09-27T10:17:26;13.60;99.90
18974;DHT22;9621;48.690;9.466;2022-09-27T10:19:55;13.70;99.90
18974;DHT22;9621;48.690;9.466;2022-09-27T10:22:28;13.70;99.90
18974;DHT22;9621;48.690;9.466;2022-09-27T10:25:00;13.80;99.90
18974;DHT22;9621;48.690;9.466;2022-09-27T10:27:37;13.80;99.90
18974;DHT22;9621;48.690;9.466;2022-09-27T10:30:05;13.80;99.90
18974;DHT22;9621;48.690;9.466;2022-09-27T10:32:34;13.90;99.90
18974;DHT22;9621;48.690;9.466;2022-09-27T10:35:28;14.00;99.90
18974;DHT22;9621;48.690;9.466;2022-09-27T10:38:16;14.20;99.90
18974;DHT22;9621;48.690;9.466;2022-09-27T10:40:48;14.40;99.90
18974;DHT22;9621;48.690;9.466;2022-09-27T10:43:30;14.40;99.90
18974;DHT22;9621;48.690;9.466;2022-09-27T10:46:12;14.30;99.90
18974;DHT22;9621;48.690;9.466;2022-09-27T10:48:42;14.20;99.90
18974;DHT22;9621;48.690;9.466;2022-09-27T10:51:24;14.00;99.90
18974;DHT22;9621;48.690;9.466;2022-09-27T10:53:54;13.90;99.90
18974;DHT22;9621;48.690;9.466;2022-09-27T10:56:29;13.70;99.90
18974;DHT22;9621;48.690;9.466;2022-09-27T11:02:20;13.40;99.90
18974;DHT22;9621;48.690;9.466;2022-09-27T11:05:06;13.30;99.90
18974;DHT22;9621;48.690;9.466;2022-09-27T11:07:35;13.20;99.90
18974;DHT22;9621;48.690;9.466;2022-09-27T11:10:21;13.10;99.90
18974;DHT22;9621;48.690;9.466;2022-09-27T11:13:06;12.90;99.90
18974;DHT22;9621;48.690;9.466;2022-09-27T11:15:39;12.80;99.90
18974;DHT22;9621;48.690;9.466;2022-09-27T11:18:15;12.80;99.90
18974;DHT22;9621;48.690;9.466;2022-09-27T11:20:52;12.80;99.90
18974;DHT22;9621;48.690;9.466;2022-09-27T11:23:31;12.90;99.90
18974;DHT22;9621;48.690;9.466;2022-09-27T11:26:15;12.90;99.90
18974;DHT22;9621;48.690;9.466;2022-09-27T11:28:52;12.90;99.90
18974;DHT22;9621;48.690;9.466;2022-09-27T11:31:27;13.00;99.90
18974;DHT22;9621;48.690;9.466;2022-09-27T11:37:11;12.90;99.90
18974;DHT22;9621;48.690;9.466;2022-09-27T11:39:55;13.00;99.90
18974;DHT22;9621;48.690;9.466;2022-09-27T11:42:44;13.00;99.90
18974;DHT22;9621;48.690;9.466;2022-09-27T11:45:24;13.00;99.90
18974;DHT22;9621;48.690;9.466;2022-09-27T11:48:07;13.00;99.90
18974;DHT22;9621;48.690;9.466;2022-09-27T11:50:56;13.10;99.90
18974;DHT22;9621;48.690;9.466;2022-09-27T11:53:40;13.00;99.90
18974;DHT22;9621;48.690;9.466;2022-09-27T11:56:20;12.80;99.90
18974;DHT22;9621;48.690;9.466;2022-09-27T11:59:02;12.70;99.90
18974;DHT22;9621;48.690;9.466;2022-09-27T12:01:37;12.70;99.90
18974;DHT22;9621;48.690;9.466;2022-09-27T12:04:25;12.50;99.90
18974;DHT22;9621;48.690;9.466;2022-09-27T12:07:00;12.30;99.90
18974;DHT22;9621;48.690;9.466;2022-09-27T12:09:32;12.40;99.90
18974;DHT22;9621;48.690;9.466;2022-09-27T12:12:04;12.50;99.90
18974;DHT22;9621;48.690;9.466;2022-09-27T12:14:39;12.60;99.90
18974;DHT22;9621;48.690;9.466;2022-09-27T12:17:13;12.90;99.90
18974;DHT22;9621;48.690;9.466;2022-09-27T12:19:43;13.10;99.90
18974;DHT22;9621;48.690;9.466;2022-09-27T12:22:15;13.30;99.90
18974;DHT22;9621;48.690;9.466;2022-09-27T12:24:44;13.50;99.90
18974;DHT22;9621;48.690;9.466;2022-09-27T12:27:15;13.50;99.90
18974;DHT22;9621;48.690;9.466;2022-09-27T12:29:45;13.40;99.90
18974;DHT22;9621;48.690;9.466;2022-09-27T12:32:19;13.30;99.90
18974;DHT22;9621;48.690;9.466;2022-09-27T12:34:55;13.10;99.90
18974;DHT22;9621;48.690;9.466;2022-09-27T12:37:29;12.80;99.90
18974;DHT22;9621;48.690;9.466;2022-09-27T12:40:02;12.50;99.90
18974;DHT22;9621;48.690;9.466;2022-09-27T12:42:34;12.10;99.90
18974;DHT22;9621;48.690;9.466;2022-09-27T12:45:04;11.70;99.90
18974;DHT22;9621;48.690;9.466;2022-09-27T12:47:48;11.30;99.90
18974;DHT22;9621;48.690;9.466;2022-09-27T12:50:26;10.90;99.90
18974;DHT22;9621;48.690;9.466;2022-09-27T12:52:57;10.60;99.90
18974;DHT22;9621;48.690;9.466;2022-09-27T12:56:03;10.40;99.90
18974;DHT22;9621;48.690;9.466;2022-09-27T13:24:48;10.20;99.90
18974;DHT22;9621;48.690;9.466;2022-09-27T13:27:40;10.30;99.90
18974;DHT22;9621;48.690;9.466;2022-09-27T13:33:20;10.50;99.90
18974;DHT22;9621;48.690;9.466;2022-09-27T13:36:06;10.60;99.90
18974;DHT22;9621;48.690;9.466;2022-09-27T13:38:34;10.70;99.90
18974;DHT22;9621;48.690;9.466;2022-09-27T13:41:14;10.70;99.90
18974;DHT22;9621;48.690;9.466;2022-09-27T13:43:49;10.80;99.90
18974;DHT22;9621;48.690;9.466;2022-09-27T13:46:28;10.90;99.90
18974;DHT22;9621;48.690;9.466;2022-09-27T13:49:00;11.10;99.90
18974;DHT22;9621;48.690;9.466;2022-09-27T13:51:34;11.00;99.90
18974;DHT22;9621;48.690;9.466;2022-09-27T13:57:40;11.00;99.90
18974;DHT22;9621;48.690;9.466;2022-09-27T14:00:11;10.90;99.90
18974;DHT22;9621;48.690;9.466;2022-09-27T14:02:49;10.90;99.90
18974;DHT22;9621;48.690;9.466;2022-09-27T14:05:19;10.80;99.90
18974;DHT22;9621;48.690;9.466;2022-09-27T14:07:48;10.80;99.90
18974;DHT22;9621;48.690;9.466;2022-09-27T14:10:18;10.90;99.90
18974;DHT22;9621;48.690;9.466;2022-09-27T14:12:50;10.90;99.90
18974;DHT22;9621;48.690;9.466;2022-09-27T14:15:21;11.00;99.90
18974;DHT22;9621;48.690;9.466;2022-09-27T14:17:49;11.10;99.90
18974;DHT22;9621;48.690;9.466;2022-09-27T15:41:07;10.90;99.90
18974;DHT22;9621;48.690;9.466;2022-09-27T15:43:38;10.60;99.90
18974;DHT22;9621;48.690;9.466;2022-09-27T15:53:44;10.40;99.90
18974;DHT22;9621;48.690;9.466;2022-09-27T15:56:16;10.20;99.90
18974;DHT22;9621;48.690;9.466;2022-09-27T16:06:24;10.00;99.90
18974;DHT22;9621;48.690;9.466;2022-09-27T16:08:52;10.10;99.90
18974;DHT22;9621;48.690;9.466;2022-09-27T16:11:20;10.20;99.90
18974;DHT22;9621;48.690;9.466;2022-09-27T16:13:48;10.50;99.90
18974;DHT22;9621;48.690;9.466;2022-09-27T16:16:19;10.30;99.90
18974;DHT22;9621;48.690;9.466;2022-09-27T16:18:47;9.90;99.90
18974;DHT22;9621;48.690;9.466;2022-09-27T16:21:14;9.90;99.90
18974;DHT22;9621;48.690;9.466;2022-09-27T16:23:42;9.80;99.90
18974;DHT22;9621;48.690;9.466;2022-09-27T16:26:09;9.80;99.90
18974;DHT22;9621;48.690;9.466;2022-09-27T16:28:37;9.80;99.90
18974;DHT22;9621;48.690;9.466;2022-09-27T16:31:05;9.70;99.90
18974;DHT22;9621;48.690;9.466;2022-09-27T16:33:34;9.90;99.90
18974;DHT22;9621;48.690;9.466;2022-09-27T16:36:05;10.10;99.90
18974;DHT22;9621;48.690;9.466;2022-09-27T16:38:33;9.90;99.90
18974;DHT22;9621;48.690;9.466;2022-09-27T16:41:02;10.10;99.90
18974;DHT22;9621;48.690;9.466;2022-09-27T16:43:44;9.50;99.90
18974;DHT22;9621;48.690;9.466;2022-09-27T16:46:17;9.50;99.90
18974;DHT22;9621;48.690;9.466;2022-09-27T16:48:47;9.50;99.90
18974;DHT22;9621;48.690;9.466;2022-09-27T16:51:17;9.40;99.90
18974;DHT22;9621;48.690;9.466;2022-09-27T16:54:03;9.50;99.90
18974;DHT22;9621;48.690;9.466;2022-09-27T16:56:32;9.40;99.90
18974;DHT22;9621;48.690;9.466;2022-09-27T16:59:16;9.30;99.90
18974;DHT22;9621;48.690;9.466;2022-09-27T17:01:46;9.40;99.90
18974;DHT22;9621;48.690;9.466;2022-09-27T17:04:15;9.30;99.90
18974;DHT22;9621;48.690;9.466;2022-09-27T17:06:55;9.20;99.90
18974;DHT22;9621;48.690;9.466;2022-09-27T17:09:24;9.20;99.90
18974;DHT22;9621;48.690;9.466;2022-09-27T17:12:00;9.20;99.90
18974;DHT22;9621;48.690;9.466;2022-09-27T17:14:51;9.10;99.90
18974;DHT22;9621;48.690;9.466;2022-09-27T17:20:13;9.00;99.90
18974;DHT22;9621;48.690;9.466;2022-09-27T17:23:01;9.00;99.90
18974;DHT22;9621;48.690;9.466;2022-09-27T17:25:28;9.00;99.90
18974;DHT22;9621;48.690;9.466;2022-09-27T17:28:01;9.00;99.90
18974;DHT22;9621;48.690;9.466;2022-09-27T17:33:56;9.50;99.90
18974;DHT22;9621;48.690;9.466;2022-09-27T17:36:28;9.00;99.90
18974;DHT22;9621;48.690;9.466;2022-09-27T17:39:08;8.90;99.90
18974;DHT22;9621;48.690;9.466;2022-09-27T17:41:42;9.10;99.90
18974;DHT22;9621;48.690;9.466;2022-09-27T17:44:13;8.90;99.90
18974;DHT22;9621;48.690;9.466;2022-09-27T17:46:45;9.30;99.90
18974;DHT22;9621;48.690;9.466;2022-09-27T17:49:37;8.90;99.90
18974;DHT22;9621;48.690;9.466;2022-09-27T17:52:22;9.00;99.90
18974;DHT22;9621;48.690;9.466;2022-09-27T17:54:50;8.80;99.90
18974;DHT22;9621;48.690;9.466;2022-09-27T17:57:24;9.90;99.90
18974;DHT22;9621;48.690;9.466;2022-09-27T17:59:55;8.60;99.90
18974;DHT22;9621;48.690;9.466;2022-09-27T18:02:23;8.70;99.90
18974;DHT22;9621;48.690;9.466;2022-09-27T18:04:51;8.50;99.90
18974;DHT22;9621;48.690;9.466;2022-09-27T18:07:18;8.40;99.90
18974;DHT22;9621;48.690;9.466;2022-09-27T18:09:45;8.50;99.90
18974;DHT22;9621;48.690;9.466;2022-09-27T18:12:12;8.40;99.90
18974;DHT22;9621;48.690;9.466;2022-09-27T18:14:41;8.40;99.90
18974;DHT22;9621;48.690;9.466;2022-09-27T18:17:08;8.20;99.90
18974;DHT22;9621;48.690;9.466;2022-09-27T18:19:38;8.10;99.90
18974;DHT22;9621;48.690;9.466;2022-09-27T18:22:11;9.70;99.90
18974;DHT22;9621;48.690;9.466;2022-09-27T18:24:39;9.40;99.90
18974;DHT22;9621;48.690;9.466;2022-09-27T18:27:07;8.10;99.90
18974;DHT22;9621;48.690;9.466;2022-09-27T18:29:59;7.70;99.90
18974;DHT22;9621;48.690;9.466;2022-09-27T18:33:02;7.90;99.90
18974;DHT22;9621;48.690;9.466;2022-09-27T18:38:58;7.80;99.90
18974;DHT22;9621;48.690;9.466;2022-09-27T18:45:12;7.70;99.90
18974;DHT22;9621;48.690;9.466;2022-09-27T18:48:24;7.60;99.90
18974;DHT22;9621;48.690;9.466;2022-09-27T18:51:34;7.80;99.90
18974;DHT22;9621;48.690;9.466;2022-09-27T19:03:42;7.20;99.90
18974;DHT22;9621;48.690;9.466;2022-09-27T19:06:57;7.40;99.90
18974;DHT22;9621;48.690;9.466;2022-09-27T19:10:22;7.30;99.90
18974;DHT22;9621;48.690;9.466;2022-09-27T19:13:18;7.40;99.90
18974;DHT22;9621;48.690;9.466;2022-09-27T19:16:16;7.30;99.90
18974;DHT22;9621;48.690;9.466;2022-09-27T19:36:06;7.20;99.90
18974;DHT22;9621;48.690;9.466;2022-09-27T19:41:48;7.30;99.90
18974;DHT22;9621;48.690;9.466;2022-09-27T19:44:21;7.20;99.90
18974;DHT22;9621;48.690;9.466;2022-09-27T19:50:15;7.10;99.90
18974;DHT22;9621;48.690;9.466;2022-09-27T19:53:28;7.10;99.90
18974;DHT22;9621;48.690;9.466;2022-09-27T19:56:31;7.20;99.90
18974;DHT22;9621;48.690;9.466;2022-09-27T19:59:31;6.90;99.90
18974;DHT22;9621;48.690;9.466;2022-09-27T20:02:38;6.80;99.90
18974;DHT22;9621;48.690;9.466;2022-09-27T20:06:03;6.80;99.90
18974;DHT22;9621;48.690;9.466;2022-09-27T20:08:59;6.70;99.90
18974;DHT22;9621;48.690;9.466;2022-09-27T20:11:42;6.60;99.90
18974;DHT22;9621;48.690;9.466;2022-09-27T20:14:12;6.40;99.90
18974;DHT22;9621;48.690;9.466;2022-09-27T20:17:17;6.40;99.90
18974;DHT22;9621;48.690;9.466;2022-09-27T20:19:54;6.30;99.90
18974;DHT22;9621;48.690;9.466;2022-09-27T20:22:42;6.30;99.90
18974;DHT22;9621;48.690;9.466;2022-09-27T20:25:44;6.20;99.90
18974;DHT22;9621;48.690;9.466;2022-09-27T20:28:18;6.00;99.90
18974;DHT22;9621;48.690;9.466;2022-09-27T20:31:20;5.90;99.90
18974;DHT22;9621;48.690;9.466;2022-09-27T20:34:04;6.00;99.90
18974;DHT22;9621;48.690;9.466;2022-09-27T20:40:04;6.00;99.90
18974;DHT22;9621;48.690;9.466;2022-09-27T20:46:29;6.90;99.90
18974;DHT22;9621;48.690;9.466;2022-09-27T20:48:58;5.50;99.90
18974;DHT22;9621;48.690;9.466;2022-09-27T20:51:26;5.70;99.90
18974;DHT22;9621;48.690;9.466;2022-09-27T20:53:54;4.70;99.90
18974;DHT22;9621;48.690;9.466;2022-09-27T20:56:23;5.80;99.90
18974;DHT22;9621;48.690;9.466;2022-09-27T20:58:54;5.50;99.90
18974;DHT22;9621;48.690;9.466;2022-09-27T21:01:27;5.80;99.90
18974;DHT22;9621;48.690;9.466;2022-09-27T21:03:57;6.90;99.90
18974;DHT22;9621;48.690;9.466;2022-09-27T21:06:25;5.90;99.90
18974;DHT22;9621;48.690;9.466;2022-09-27T21:09:04;4.70;99.90
18974;DHT22;9621;48.690;9.466;2022-09-27T21:11:34;6.20;99.90
18974;DHT22;9621;48.690;9.466;2022-09-27T21:14:02;6.00;99.90
18974;DHT22;9621;48.690;9.466;2022-09-27T21:16:34;7.60;99.90
18974;DHT22;9621;48.690;9.466;2022-09-27T21:19:03;6.10;99.90
18974;DHT22;9621;48.690;9.466;2022-09-27T21:21:31;6.40;99.90
18974;DHT22;9621;48.690;9.466;2022-09-27T21:24:02;6.00;99.90
18974;DHT22;9621;48.690;9.466;2022-09-27T21:26:32;6.40;99.90
18974;DHT22;9621;48.690;9.466;2022-09-27T21:29:04;7.20;99.90
18974;DHT22;9621;48.690;9.466;2022-09-27T21:31:33;7.80;99.90
18974;DHT22;9621;48.690;9.466;2022-09-27T21:34:02;6.60;99.90
18974;DHT22;9621;48.690;9.466;2022-09-27T21:36:31;7.40;99.90
18974;DHT22;9621;48.690;9.466;2022-09-27T21:38:59;6.60;99.90
18974;DHT22;9621;48.690;9.466;2022-09-27T21:41:26;7.70;99.90
18974;DHT22;9621;48.690;9.466;2022-09-27T21:43:54;7.70;99.90
18974;DHT22;9621;48.690;9.466;2022-09-27T21:46:23;6.40;99.90
18974;DHT22;9621;48.690;9.466;2022-09-27T21:48:53;6.80;99.90
18974;DHT22;9621;48.690;9.466;2022-09-27T21:51:23;6.70;99.90
18974;DHT22;9621;48.690;9.466;2022-09-27T21:53:52;6.80;99.90
18974;DHT22;9621;48.690;9.466;2022-09-27T21:56:20;7.10;99.90
18974;DHT22;9621;48.690;9.466;2022-09-27T21:58:50;7.10;99.90
18974;DHT22;9621;48.690;9.466;2022-09-27T22:01:20;6.90;99.90
18974;DHT22;9621;48.690;9.466;2022-09-27T22:03:48;8.30;99.90
18974;DHT22;9621;48.690;9.466;2022-09-27T22:06:19;6.90;99.90
18974;DHT22;9621;48.690;9.466;2022-09-27T22:08:48;5.90;99.90
